Cale, Indiana
Current Conditions -  °F | °C
As of 7:55 AM on Thursday 23 Oct 2014 (Local Time) from KDCY Reporting Station
Haze Haze  
Wind Chill: 38°   Ceiling: Unl
Heat Index: 38°   Visibility: 4mi
Dew Point: 38°   Wind: 3mph
Humidity: 100%   Direction: 180°S
Pressure: 30.25"   Gusts: NA
Location:  38.6262°N, 86.7615°W
Report Text: KDCY 231255Z AUTO 18003KT 4SM BR CLR 03/03 A3025 RMK AO2 T00340034
Loading
Personal Weather Stations






























Interactive Weather Map
Tropical Storm Tracking
New forecast layout! Learn more

10-Day Weather Forecast

Advertisements
Track Severe Weather on mobile